Industrial Minillas, Puerto Rico
Current Conditions -  °F | °C
As of 7:56 AM on Saturday 25 Oct 2014 (Local Time) from TJSJ Reporting Station
Scattered Clouds Scattered Clouds  
Wind Chill: 83°   Ceiling: Unl
Heat Index: 91°   Visibility: 10mi
Dew Point: 76°   Wind: 0mph
Humidity: 79%   Direction: NA
Pressure: 29.93"   Gusts: NA
Location:  18.1781°N, 66.1167°W
Report Text: TJSJ 251156Z 00000KT 10SM FEW034 SCT075 SCT120 28/24 A2993 RMK AO2 SLP135 T02830244 10283 20261 53016
Loading
Personal Weather Stations






























Interactive Weather Map
Tropical Storm Tracking
New forecast layout! Learn more

10-Day Weather Forecast

Advertisements
Track Severe Weather on mobile